sensor_id;sensor_type;location;lat;lon;timestamp;P1;durP1;ratioP1;P2;durP2;ratioP2
5585;SDS011;2815;54.094;12.112;2022-08-19T00:01:26;27.55;;;18.67;;
5585;SDS011;2815;54.094;12.112;2022-08-19T00:03:56;24.90;;;17.92;;
5585;SDS011;2815;54.094;12.112;2022-08-19T00:06:24;30.48;;;19.52;;
5585;SDS011;2815;54.094;12.112;2022-08-19T00:08:52;27.70;;;18.60;;
5585;SDS011;2815;54.094;12.112;2022-08-19T00:11:22;28.40;;;18.98;;
5585;SDS011;2815;54.094;12.112;2022-08-19T00:13:53;29.05;;;18.77;;
5585;SDS011;2815;54.094;12.112;2022-08-19T00:16:22;27.55;;;19.15;;
5585;SDS011;2815;54.094;12.112;2022-08-19T00:18:52;28.40;;;19.25;;
5585;SDS011;2815;54.094;12.112;2022-08-19T00:21:21;28.50;;;18.65;;
5585;SDS011;2815;54.094;12.112;2022-08-19T00:23:50;29.23;;;19.25;;
5585;SDS011;2815;54.094;12.112;2022-08-19T00:26:18;28.52;;;19.00;;
5585;SDS011;2815;54.094;12.112;2022-08-19T00:28:46;28.73;;;18.52;;
5585;SDS011;2815;54.094;12.112;2022-08-19T00:31:16;31.13;;;19.77;;
5585;SDS011;2815;54.094;12.112;2022-08-19T00:33:44;29.10;;;18.60;;
5585;SDS011;2815;54.094;12.112;2022-08-19T00:36:12;28.00;;;18.73;;
5585;SDS011;2815;54.094;12.112;2022-08-19T00:38:40;30.65;;;19.23;;
5585;SDS011;2815;54.094;12.112;2022-08-19T00:41:09;28.15;;;19.30;;
5585;SDS011;2815;54.094;12.112;2022-08-19T00:43:40;31.27;;;19.85;;
5585;SDS011;2815;54.094;12.112;2022-08-19T00:46:08;32.78;;;19.60;;
5585;SDS011;2815;54.094;12.112;2022-08-19T00:48:38;29.90;;;19.08;;
5585;SDS011;2815;54.094;12.112;2022-08-19T00:51:06;30.90;;;19.90;;
5585;SDS011;2815;54.094;12.112;2022-08-19T00:53:35;28.92;;;18.85;;
5585;SDS011;2815;54.094;12.112;2022-08-19T00:56:03;32.58;;;20.10;;
5585;SDS011;2815;54.094;12.112;2022-08-19T00:58:34;31.98;;;21.38;;
5585;SDS011;2815;54.094;12.112;2022-08-19T01:01:03;28.63;;;18.70;;
5585;SDS011;2815;54.094;12.112;2022-08-19T01:03:31;31.35;;;20.00;;
5585;SDS011;2815;54.094;12.112;2022-08-19T01:06:21;30.17;;;20.67;;
5585;SDS011;2815;54.094;12.112;2022-08-19T01:08:49;31.15;;;21.33;;
5585;SDS011;2815;54.094;12.112;2022-08-19T01:11:17;32.88;;;21.60;;
5585;SDS011;2815;54.094;12.112;2022-08-19T01:13:45;33.88;;;20.60;;
5585;SDS011;2815;54.094;12.112;2022-08-19T01:16:16;34.85;;;22.42;;
5585;SDS011;2815;54.094;12.112;2022-08-19T01:18:46;32.58;;;22.23;;
5585;SDS011;2815;54.094;12.112;2022-08-19T01:21:16;32.67;;;22.98;;
5585;SDS011;2815;54.094;12.112;2022-08-19T01:23:49;30.83;;;22.48;;
5585;SDS011;2815;54.094;12.112;2022-08-19T01:26:18;32.72;;;22.38;;
5585;SDS011;2815;54.094;12.112;2022-08-19T01:28:50;38.33;;;24.23;;
5585;SDS011;2815;54.094;12.112;2022-08-19T01:31:25;34.47;;;23.27;;
5585;SDS011;2815;54.094;12.112;2022-08-19T01:33:58;35.35;;;23.58;;
5585;SDS011;2815;54.094;12.112;2022-08-19T01:36:29;31.83;;;23.83;;
5585;SDS011;2815;54.094;12.112;2022-08-19T01:39:02;35.08;;;23.13;;
5585;SDS011;2815;54.094;12.112;2022-08-19T01:41:32;33.38;;;22.50;;
5585;SDS011;2815;54.094;12.112;2022-08-19T01:44:01;40.22;;;23.27;;
5585;SDS011;2815;54.094;12.112;2022-08-19T01:46:45;36.47;;;23.08;;
5585;SDS011;2815;54.094;12.112;2022-08-19T01:49:15;34.72;;;23.73;;
5585;SDS011;2815;54.094;12.112;2022-08-19T01:51:44;37.10;;;22.67;;
5585;SDS011;2815;54.094;12.112;2022-08-19T01:54:14;37.03;;;23.58;;
5585;SDS011;2815;54.094;12.112;2022-08-19T01:56:54;33.83;;;23.98;;
5585;SDS011;2815;54.094;12.112;2022-08-19T01:59:25;36.72;;;23.00;;
5585;SDS011;2815;54.094;12.112;2022-08-19T02:01:53;39.72;;;24.50;;
5585;SDS011;2815;54.094;12.112;2022-08-19T02:04:21;38.25;;;24.98;;
5585;SDS011;2815;54.094;12.112;2022-08-19T02:06:51;40.13;;;25.05;;
5585;SDS011;2815;54.094;12.112;2022-08-19T02:09:21;40.70;;;23.30;;
5585;SDS011;2815;54.094;12.112;2022-08-19T02:11:48;43.95;;;26.40;;
5585;SDS011;2815;54.094;12.112;2022-08-19T02:14:17;43.88;;;26.02;;
5585;SDS011;2815;54.094;12.112;2022-08-19T02:16:44;42.30;;;26.77;;
5585;SDS011;2815;54.094;12.112;2022-08-19T02:19:12;43.10;;;26.63;;
5585;SDS011;2815;54.094;12.112;2022-08-19T02:21:40;42.55;;;26.73;;
5585;SDS011;2815;54.094;12.112;2022-08-19T02:24:09;45.42;;;28.33;;
5585;SDS011;2815;54.094;12.112;2022-08-19T02:26:39;49.40;;;27.13;;
5585;SDS011;2815;54.094;12.112;2022-08-19T02:29:08;47.63;;;27.92;;
5585;SDS011;2815;54.094;12.112;2022-08-19T02:31:36;44.47;;;27.63;;
5585;SDS011;2815;54.094;12.112;2022-08-19T02:34:04;38.53;;;25.02;;
5585;SDS011;2815;54.094;12.112;2022-08-19T02:36:32;39.15;;;25.05;;
5585;SDS011;2815;54.094;12.112;2022-08-19T02:39:00;40.30;;;24.73;;
5585;SDS011;2815;54.094;12.112;2022-08-19T02:41:29;44.38;;;25.35;;
5585;SDS011;2815;54.094;12.112;2022-08-19T02:44:01;40.90;;;25.27;;
5585;SDS011;2815;54.094;12.112;2022-08-19T02:46:50;40.65;;;23.45;;
5585;SDS011;2815;54.094;12.112;2022-08-19T02:49:18;46.55;;;25.30;;
5585;SDS011;2815;54.094;12.112;2022-08-19T02:51:46;37.95;;;23.50;;
5585;SDS011;2815;54.094;12.112;2022-08-19T02:54:14;39.97;;;24.10;;
5585;SDS011;2815;54.094;12.112;2022-08-19T02:56:43;42.15;;;24.55;;
5585;SDS011;2815;54.094;12.112;2022-08-19T02:59:13;43.83;;;25.55;;
5585;SDS011;2815;54.094;12.112;2022-08-19T03:01:41;40.03;;;24.38;;
5585;SDS011;2815;54.094;12.112;2022-08-19T03:04:10;41.45;;;25.33;;
5585;SDS011;2815;54.094;12.112;2022-08-19T03:06:41;41.35;;;22.73;;
5585;SDS011;2815;54.094;12.112;2022-08-19T03:09:11;40.75;;;24.92;;
5585;SDS011;2815;54.094;12.112;2022-08-19T03:11:39;43.78;;;25.23;;
5585;SDS011;2815;54.094;12.112;2022-08-19T03:14:08;43.90;;;26.10;;
5585;SDS011;2815;54.094;12.112;2022-08-19T03:16:41;54.35;;;26.08;;
5585;SDS011;2815;54.094;12.112;2022-08-19T03:19:11;42.30;;;24.98;;
5585;SDS011;2815;54.094;12.112;2022-08-19T03:21:39;46.83;;;25.23;;
5585;SDS011;2815;54.094;12.112;2022-08-19T03:24:08;40.50;;;23.50;;
5585;SDS011;2815;54.094;12.112;2022-08-19T03:26:38;44.60;;;23.70;;
5585;SDS011;2815;54.094;12.112;2022-08-19T03:29:06;41.30;;;21.20;;
5585;SDS011;2815;54.094;12.112;2022-08-19T03:31:37;50.40;;;26.92;;
5585;SDS011;2815;54.094;12.112;2022-08-19T03:34:18;47.45;;;24.77;;
5585;SDS011;2815;54.094;12.112;2022-08-19T03:36:48;49.72;;;25.25;;
5585;SDS011;2815;54.094;12.112;2022-08-19T03:39:16;47.88;;;24.35;;
5585;SDS011;2815;54.094;12.112;2022-08-19T03:41:45;50.38;;;28.55;;
5585;SDS011;2815;54.094;12.112;2022-08-19T03:44:35;59.45;;;29.20;;
5585;SDS011;2815;54.094;12.112;2022-08-19T03:47:04;54.95;;;26.60;;
5585;SDS011;2815;54.094;12.112;2022-08-19T03:49:34;58.28;;;28.45;;
5585;SDS011;2815;54.094;12.112;2022-08-19T03:52:03;63.65;;;28.75;;
5585;SDS011;2815;54.094;12.112;2022-08-19T03:54:34;60.58;;;27.13;;
5585;SDS011;2815;54.094;12.112;2022-08-19T03:57:02;61.35;;;28.23;;
5585;SDS011;2815;54.094;12.112;2022-08-19T03:59:31;60.40;;;27.00;;
5585;SDS011;2815;54.094;12.112;2022-08-19T04:02:04;64.93;;;29.73;;
5585;SDS011;2815;54.094;12.112;2022-08-19T04:04:38;56.50;;;28.58;;
5585;SDS011;2815;54.094;12.112;2022-08-19T04:07:06;64.53;;;29.38;;
5585;SDS011;2815;54.094;12.112;2022-08-19T04:09:35;70.03;;;30.77;;
5585;SDS011;2815;54.094;12.112;2022-08-19T04:12:04;74.25;;;31.63;;
5585;SDS011;2815;54.094;12.112;2022-08-19T04:14:33;68.60;;;30.13;;
5585;SDS011;2815;54.094;12.112;2022-08-19T04:17:02;61.88;;;28.65;;
5585;SDS011;2815;54.094;12.112;2022-08-19T04:19:32;68.25;;;29.67;;
5585;SDS011;2815;54.094;12.112;2022-08-19T04:22:02;61.00;;;28.13;;
5585;SDS011;2815;54.094;12.112;2022-08-19T04:24:30;69.50;;;30.13;;
5585;SDS011;2815;54.094;12.112;2022-08-19T04:26:59;69.47;;;29.90;;
5585;SDS011;2815;54.094;12.112;2022-08-19T04:29:28;67.25;;;29.88;;
5585;SDS011;2815;54.094;12.112;2022-08-19T04:31:56;69.35;;;28.95;;
5585;SDS011;2815;54.094;12.112;2022-08-19T04:34:34;67.07;;;29.73;;
5585;SDS011;2815;54.094;12.112;2022-08-19T04:37:24;63.58;;;28.95;;
5585;SDS011;2815;54.094;12.112;2022-08-19T04:39:59;71.28;;;30.27;;
5585;SDS011;2815;54.094;12.112;2022-08-19T04:42:44;69.68;;;29.92;;
5585;SDS011;2815;54.094;12.112;2022-08-19T04:45:13;74.63;;;31.05;;
5585;SDS011;2815;54.094;12.112;2022-08-19T04:47:43;71.80;;;29.58;;
5585;SDS011;2815;54.094;12.112;2022-08-19T04:50:23;70.25;;;29.63;;
5585;SDS011;2815;54.094;12.112;2022-08-19T04:52:52;69.53;;;29.73;;
5585;SDS011;2815;54.094;12.112;2022-08-19T04:55:22;70.68;;;30.30;;
5585;SDS011;2815;54.094;12.112;2022-08-19T04:57:51;69.10;;;31.48;;
5585;SDS011;2815;54.094;12.112;2022-08-19T05:00:19;74.53;;;30.75;;
5585;SDS011;2815;54.094;12.112;2022-08-19T05:02:47;68.30;;;28.98;;
5585;SDS011;2815;54.094;12.112;2022-08-19T05:05:15;68.75;;;30.17;;
5585;SDS011;2815;54.094;12.112;2022-08-19T05:07:44;75.18;;;31.13;;
5585;SDS011;2815;54.094;12.112;2022-08-19T05:10:13;68.28;;;29.58;;
5585;SDS011;2815;54.094;12.112;2022-08-19T05:12:41;69.20;;;29.30;;
5585;SDS011;2815;54.094;12.112;2022-08-19T05:15:09;64.35;;;28.25;;
5585;SDS011;2815;54.094;12.112;2022-08-19T05:17:37;66.03;;;28.33;;
5585;SDS011;2815;54.094;12.112;2022-08-19T05:20:25;75.60;;;30.60;;
5585;SDS011;2815;54.094;12.112;2022-08-19T05:23:11;67.90;;;29.88;;
5585;SDS011;2815;54.094;12.112;2022-08-19T05:25:49;61.50;;;27.05;;
5585;SDS011;2815;54.094;12.112;2022-08-19T05:28:18;62.58;;;26.73;;
5585;SDS011;2815;54.094;12.112;2022-08-19T05:30:46;65.07;;;26.90;;
5585;SDS011;2815;54.094;12.112;2022-08-19T05:33:14;60.72;;;27.15;;
5585;SDS011;2815;54.094;12.112;2022-08-19T05:35:42;62.78;;;28.08;;
5585;SDS011;2815;54.094;12.112;2022-08-19T05:38:11;60.28;;;26.98;;
5585;SDS011;2815;54.094;12.112;2022-08-19T05:40:39;65.03;;;26.77;;
5585;SDS011;2815;54.094;12.112;2022-08-19T05:43:09;63.35;;;27.33;;
5585;SDS011;2815;54.094;12.112;2022-08-19T05:45:38;60.38;;;26.55;;
5585;SDS011;2815;54.094;12.112;2022-08-19T05:48:08;52.72;;;26.33;;
5585;SDS011;2815;54.094;12.112;2022-08-19T05:50:37;56.97;;;25.95;;
5585;SDS011;2815;54.094;12.112;2022-08-19T05:53:06;55.47;;;27.23;;
5585;SDS011;2815;54.094;12.112;2022-08-19T05:55:35;61.22;;;25.48;;
5585;SDS011;2815;54.094;12.112;2022-08-19T05:58:04;51.63;;;24.65;;
5585;SDS011;2815;54.094;12.112;2022-08-19T06:00:35;58.72;;;27.23;;
5585;SDS011;2815;54.094;12.112;2022-08-19T06:03:04;54.00;;;26.52;;
5585;SDS011;2815;54.094;12.112;2022-08-19T06:05:38;53.97;;;24.35;;
5585;SDS011;2815;54.094;12.112;2022-08-19T06:08:18;57.40;;;26.13;;
5585;SDS011;2815;54.094;12.112;2022-08-19T06:11:17;55.85;;;25.42;;
5585;SDS011;2815;54.094;12.112;2022-08-19T06:13:48;55.60;;;24.95;;
5585;SDS011;2815;54.094;12.112;2022-08-19T06:16:26;59.35;;;27.73;;
5585;SDS011;2815;54.094;12.112;2022-08-19T06:18:55;56.97;;;25.67;;
5585;SDS011;2815;54.094;12.112;2022-08-19T06:21:25;55.78;;;25.98;;
5585;SDS011;2815;54.094;12.112;2022-08-19T06:23:55;53.70;;;25.88;;
5585;SDS011;2815;54.094;12.112;2022-08-19T06:26:23;62.10;;;27.67;;
5585;SDS011;2815;54.094;12.112;2022-08-19T06:28:51;59.95;;;27.40;;
5585;SDS011;2815;54.094;12.112;2022-08-19T06:31:21;56.83;;;27.75;;
5585;SDS011;2815;54.094;12.112;2022-08-19T06:33:51;67.97;;;27.52;;
5585;SDS011;2815;54.094;12.112;2022-08-19T06:36:20;61.58;;;28.13;;
5585;SDS011;2815;54.094;12.112;2022-08-19T06:38:53;57.03;;;26.80;;
5585;SDS011;2815;54.094;12.112;2022-08-19T06:41:21;55.97;;;26.02;;
5585;SDS011;2815;54.094;12.112;2022-08-19T06:43:49;55.10;;;26.15;;
5585;SDS011;2815;54.094;12.112;2022-08-19T06:46:20;57.03;;;27.10;;
5585;SDS011;2815;54.094;12.112;2022-08-19T06:48:53;53.53;;;25.73;;
5585;SDS011;2815;54.094;12.112;2022-08-19T06:51:26;52.58;;;25.52;;
5585;SDS011;2815;54.094;12.112;2022-08-19T06:54:10;62.45;;;25.77;;
5585;SDS011;2815;54.094;12.112;2022-08-19T06:56:45;56.78;;;26.23;;
5585;SDS011;2815;54.094;12.112;2022-08-19T06:59:14;67.80;;;26.35;;
5585;SDS011;2815;54.094;12.112;2022-08-19T07:01:45;63.53;;;25.75;;
5585;SDS011;2815;54.094;12.112;2022-08-19T07:04:16;62.40;;;27.25;;
5585;SDS011;2815;54.094;12.112;2022-08-19T07:06:45;61.85;;;27.65;;
5585;SDS011;2815;54.094;12.112;2022-08-19T07:09:21;61.60;;;26.33;;
5585;SDS011;2815;54.094;12.112;2022-08-19T07:11:50;66.70;;;27.55;;
5585;SDS011;2815;54.094;12.112;2022-08-19T07:14:20;61.88;;;27.67;;
5585;SDS011;2815;54.094;12.112;2022-08-19T07:16:51;70.45;;;28.13;;
5585;SDS011;2815;54.094;12.112;2022-08-19T07:19:23;68.18;;;28.40;;
5585;SDS011;2815;54.094;12.112;2022-08-19T07:21:53;66.35;;;28.10;;
5585;SDS011;2815;54.094;12.112;2022-08-19T07:24:23;59.25;;;27.70;;
5585;SDS011;2815;54.094;12.112;2022-08-19T07:26:52;61.17;;;27.48;;
5585;SDS011;2815;54.094;12.112;2022-08-19T07:29:21;60.10;;;27.13;;
5585;SDS011;2815;54.094;12.112;2022-08-19T07:31:54;62.60;;;27.73;;
5585;SDS011;2815;54.094;12.112;2022-08-19T07:34:24;61.72;;;26.05;;
5585;SDS011;2815;54.094;12.112;2022-08-19T07:36:53;63.10;;;24.58;;
5585;SDS011;2815;54.094;12.112;2022-08-19T07:39:23;63.70;;;25.08;;
5585;SDS011;2815;54.094;12.112;2022-08-19T07:41:53;55.53;;;24.75;;
5585;SDS011;2815;54.094;12.112;2022-08-19T07:44:21;61.00;;;25.52;;
5585;SDS011;2815;54.094;12.112;2022-08-19T07:46:51;64.05;;;24.95;;
5585;SDS011;2815;54.094;12.112;2022-08-19T07:49:22;56.17;;;26.07;;
5585;SDS011;2815;54.094;12.112;2022-08-19T07:51:52;66.55;;;26.42;;
5585;SDS011;2815;54.094;12.112;2022-08-19T07:54:24;54.08;;;25.10;;
5585;SDS011;2815;54.094;12.112;2022-08-19T07:56:53;56.83;;;25.23;;
5585;SDS011;2815;54.094;12.112;2022-08-19T07:59:21;55.97;;;24.48;;
5585;SDS011;2815;54.094;12.112;2022-08-19T08:01:50;59.42;;;25.63;;
5585;SDS011;2815;54.094;12.112;2022-08-19T08:04:19;59.25;;;25.45;;
5585;SDS011;2815;54.094;12.112;2022-08-19T08:07:06;62.33;;;24.90;;
5585;SDS011;2815;54.094;12.112;2022-08-19T08:09:57;55.60;;;24.43;;
5585;SDS011;2815;54.094;12.112;2022-08-19T08:12:30;53.90;;;23.25;;
5585;SDS011;2815;54.094;12.112;2022-08-19T08:15:03;51.92;;;23.90;;
5585;SDS011;2815;54.094;12.112;2022-08-19T08:17:38;50.10;;;23.63;;
5585;SDS011;2815;54.094;12.112;2022-08-19T08:20:16;49.38;;;23.67;;
5585;SDS011;2815;54.094;12.112;2022-08-19T08:22:46;57.35;;;25.50;;
5585;SDS011;2815;54.094;12.112;2022-08-19T08:25:33;57.58;;;25.67;;
5585;SDS011;2815;54.094;12.112;2022-08-19T08:28:03;53.60;;;25.38;;
5585;SDS011;2815;54.094;12.112;2022-08-19T08:30:31;58.17;;;25.80;;
5585;SDS011;2815;54.094;12.112;2022-08-19T08:33:02;52.67;;;25.23;;
5585;SDS011;2815;54.094;12.112;2022-08-19T08:35:30;52.10;;;24.05;;
5585;SDS011;2815;54.094;12.112;2022-08-19T08:38:01;54.50;;;25.75;;
5585;SDS011;2815;54.094;12.112;2022-08-19T08:40:30;54.45;;;25.23;;
5585;SDS011;2815;54.094;12.112;2022-08-19T08:43:03;52.83;;;24.80;;
5585;SDS011;2815;54.094;12.112;2022-08-19T08:45:50;54.65;;;26.33;;
5585;SDS011;2815;54.094;12.112;2022-08-19T08:48:23;56.20;;;27.27;;
5585;SDS011;2815;54.094;12.112;2022-08-19T08:50:53;46.63;;;24.58;;
5585;SDS011;2815;54.094;12.112;2022-08-19T08:53:23;54.58;;;26.55;;
5585;SDS011;2815;54.094;12.112;2022-08-19T08:55:58;48.35;;;23.85;;
5585;SDS011;2815;54.094;12.112;2022-08-19T08:58:28;48.58;;;24.77;;
5585;SDS011;2815;54.094;12.112;2022-08-19T09:01:00;54.10;;;25.13;;
5585;SDS011;2815;54.094;12.112;2022-08-19T09:03:28;53.92;;;25.30;;
5585;SDS011;2815;54.094;12.112;2022-08-19T09:05:59;47.40;;;24.60;;
5585;SDS011;2815;54.094;12.112;2022-08-19T09:08:38;50.83;;;27.10;;
5585;SDS011;2815;54.094;12.112;2022-08-19T09:11:10;50.75;;;25.13;;
5585;SDS011;2815;54.094;12.112;2022-08-19T09:14:08;43.13;;;22.15;;
5585;SDS011;2815;54.094;12.112;2022-08-19T09:17:14;57.88;;;25.45;;
5585;SDS011;2815;54.094;12.112;2022-08-19T09:19:50;45.78;;;23.48;;
5585;SDS011;2815;54.094;12.112;2022-08-19T09:22:19;48.05;;;23.63;;
5585;SDS011;2815;54.094;12.112;2022-08-19T09:24:53;45.80;;;25.05;;
5585;SDS011;2815;54.094;12.112;2022-08-19T09:27:21;45.85;;;23.63;;
5585;SDS011;2815;54.094;12.112;2022-08-19T09:30:10;42.95;;;22.55;;
5585;SDS011;2815;54.094;12.112;2022-08-19T09:32:41;43.55;;;23.55;;
5585;SDS011;2815;54.094;12.112;2022-08-19T09:35:10;46.92;;;24.92;;
5585;SDS011;2815;54.094;12.112;2022-08-19T09:37:40;44.67;;;22.85;;
5585;SDS011;2815;54.094;12.112;2022-08-19T09:40:11;48.72;;;25.25;;
5585;SDS011;2815;54.094;12.112;2022-08-19T09:42:41;46.50;;;25.10;;
5585;SDS011;2815;54.094;12.112;2022-08-19T09:45:17;48.75;;;24.73;;
5585;SDS011;2815;54.094;12.112;2022-08-19T09:47:47;40.70;;;23.67;;
5585;SDS011;2815;54.094;12.112;2022-08-19T09:50:15;48.03;;;24.27;;
5585;SDS011;2815;54.094;12.112;2022-08-19T09:52:44;43.65;;;23.63;;
5585;SDS011;2815;54.094;12.112;2022-08-19T09:55:24;42.20;;;21.95;;
5585;SDS011;2815;54.094;12.112;2022-08-19T09:57:58;41.13;;;23.15;;
5585;SDS011;2815;54.094;12.112;2022-08-19T10:00:28;40.13;;;21.85;;
5585;SDS011;2815;54.094;12.112;2022-08-19T10:02:57;43.40;;;22.50;;
5585;SDS011;2815;54.094;12.112;2022-08-19T10:05:26;42.72;;;21.77;;
5585;SDS011;2815;54.094;12.112;2022-08-19T10:08:14;45.70;;;21.88;;
5585;SDS011;2815;54.094;12.112;2022-08-19T10:10:44;43.63;;;23.55;;
5585;SDS011;2815;54.094;12.112;2022-08-19T10:13:14;36.90;;;21.70;;
5585;SDS011;2815;54.094;12.112;2022-08-19T10:15:43;37.83;;;22.00;;
5585;SDS011;2815;54.094;12.112;2022-08-19T10:18:14;36.35;;;19.85;;
5585;SDS011;2815;54.094;12.112;2022-08-19T10:20:44;38.15;;;19.38;;
5585;SDS011;2815;54.094;12.112;2022-08-19T10:23:17;38.03;;;21.75;;
5585;SDS011;2815;54.094;12.112;2022-08-19T10:25:48;40.60;;;22.25;;
5585;SDS011;2815;54.094;12.112;2022-08-19T10:28:19;34.47;;;20.67;;
5585;SDS011;2815;54.094;12.112;2022-08-19T10:30:49;39.97;;;22.30;;
5585;SDS011;2815;54.094;12.112;2022-08-19T10:33:17;39.03;;;23.08;;
5585;SDS011;2815;54.094;12.112;2022-08-19T10:36:05;39.55;;;23.20;;
5585;SDS011;2815;54.094;12.112;2022-08-19T10:38:35;40.30;;;23.90;;
5585;SDS011;2815;54.094;12.112;2022-08-19T10:41:16;36.80;;;22.83;;
5585;SDS011;2815;54.094;12.112;2022-08-19T10:43:45;39.40;;;24.33;;
5585;SDS011;2815;54.094;12.112;2022-08-19T10:46:14;40.20;;;22.58;;
5585;SDS011;2815;54.094;12.112;2022-08-19T10:48:44;38.10;;;21.92;;
5585;SDS011;2815;54.094;12.112;2022-08-19T10:51:13;37.08;;;22.90;;
5585;SDS011;2815;54.094;12.112;2022-08-19T10:53:59;33.10;;;19.42;;
5585;SDS011;2815;54.094;12.112;2022-08-19T10:56:33;36.58;;;22.10;;
5585;SDS011;2815;54.094;12.112;2022-08-19T10:59:20;37.33;;;21.52;;
5585;SDS011;2815;54.094;12.112;2022-08-19T11:01:52;34.33;;;19.92;;
5585;SDS011;2815;54.094;12.112;2022-08-19T11:04:23;32.30;;;20.40;;
5585;SDS011;2815;54.094;12.112;2022-08-19T11:06:55;37.40;;;21.92;;
5585;SDS011;2815;54.094;12.112;2022-08-19T11:09:24;36.20;;;21.38;;
5585;SDS011;2815;54.094;12.112;2022-08-19T11:12:01;33.70;;;20.63;;
5585;SDS011;2815;54.094;12.112;2022-08-19T11:14:30;32.97;;;19.95;;
5585;SDS011;2815;54.094;12.112;2022-08-19T11:16:59;33.15;;;21.35;;
5585;SDS011;2815;54.094;12.112;2022-08-19T11:19:28;30.95;;;20.08;;
5585;SDS011;2815;54.094;12.112;2022-08-19T11:21:56;36.20;;;20.35;;
5585;SDS011;2815;54.094;12.112;2022-08-19T11:24:26;31.35;;;19.60;;
5585;SDS011;2815;54.094;12.112;2022-08-19T11:26:58;32.65;;;20.45;;
5585;SDS011;2815;54.094;12.112;2022-08-19T11:29:30;32.33;;;20.27;;
5585;SDS011;2815;54.094;12.112;2022-08-19T11:32:02;31.30;;;20.60;;
5585;SDS011;2815;54.094;12.112;2022-08-19T11:34:32;33.92;;;21.45;;
5585;SDS011;2815;54.094;12.112;2022-08-19T11:37:02;34.38;;;21.13;;
5585;SDS011;2815;54.094;12.112;2022-08-19T11:39:30;37.28;;;22.40;;
5585;SDS011;2815;54.094;12.112;2022-08-19T11:41:59;33.53;;;21.08;;
5585;SDS011;2815;54.094;12.112;2022-08-19T11:44:50;32.42;;;19.50;;
5585;SDS011;2815;54.094;12.112;2022-08-19T11:47:18;31.48;;;19.38;;
5585;SDS011;2815;54.094;12.112;2022-08-19T11:49:46;32.42;;;19.40;;
5585;SDS011;2815;54.094;12.112;2022-08-19T11:52:14;35.65;;;20.90;;
5585;SDS011;2815;54.094;12.112;2022-08-19T11:54:42;33.38;;;20.05;;
5585;SDS011;2815;54.094;12.112;2022-08-19T11:57:11;33.65;;;19.75;;
5585;SDS011;2815;54.094;12.112;2022-08-19T11:59:41;31.58;;;20.00;;
5585;SDS011;2815;54.094;12.112;2022-08-19T12:02:09;34.83;;;19.95;;
5585;SDS011;2815;54.094;12.112;2022-08-19T12:04:37;32.50;;;19.88;;
5585;SDS011;2815;54.094;12.112;2022-08-19T12:07:05;34.60;;;20.67;;
5585;SDS011;2815;54.094;12.112;2022-08-19T12:09:33;31.48;;;19.33;;
5585;SDS011;2815;54.094;12.112;2022-08-19T12:12:07;34.13;;;20.90;;
5585;SDS011;2815;54.094;12.112;2022-08-19T12:14:37;38.83;;;22.20;;
5585;SDS011;2815;54.094;12.112;2022-08-19T12:17:05;34.92;;;20.42;;
5585;SDS011;2815;54.094;12.112;2022-08-19T12:19:35;37.33;;;22.75;;
5585;SDS011;2815;54.094;12.112;2022-08-19T12:22:05;39.42;;;23.13;;
5585;SDS011;2815;54.094;12.112;2022-08-19T12:24:34;37.88;;;21.05;;
5585;SDS011;2815;54.094;12.112;2022-08-19T12:27:02;36.58;;;20.77;;
5585;SDS011;2815;54.094;12.112;2022-08-19T12:29:30;34.17;;;21.77;;
5585;SDS011;2815;54.094;12.112;2022-08-19T12:32:00;34.65;;;21.40;;
5585;SDS011;2815;54.094;12.112;2022-08-19T12:34:30;35.83;;;21.48;;
5585;SDS011;2815;54.094;12.112;2022-08-19T12:37:00;35.03;;;20.02;;
5585;SDS011;2815;54.094;12.112;2022-08-19T12:39:33;33.75;;;20.77;;
5585;SDS011;2815;54.094;12.112;2022-08-19T12:42:03;32.10;;;20.95;;
5585;SDS011;2815;54.094;12.112;2022-08-19T12:44:32;29.50;;;17.63;;
5585;SDS011;2815;54.094;12.112;2022-08-19T12:47:03;29.35;;;18.25;;
5585;SDS011;2815;54.094;12.112;2022-08-19T12:49:33;32.20;;;19.33;;
5585;SDS011;2815;54.094;12.112;2022-08-19T12:52:21;33.25;;;20.38;;
5585;SDS011;2815;54.094;12.112;2022-08-19T12:54:50;31.45;;;19.90;;
5585;SDS011;2815;54.094;12.112;2022-08-19T12:57:20;33.80;;;21.27;;
5585;SDS011;2815;54.094;12.112;2022-08-19T12:59:58;32.28;;;20.15;;
5585;SDS011;2815;54.094;12.112;2022-08-19T13:02:32;33.25;;;20.67;;
5585;SDS011;2815;54.094;12.112;2022-08-19T13:05:05;30.60;;;20.05;;
5585;SDS011;2815;54.094;12.112;2022-08-19T13:07:37;30.90;;;19.38;;
5585;SDS011;2815;54.094;12.112;2022-08-19T13:10:06;31.55;;;19.77;;
5585;SDS011;2815;54.094;12.112;2022-08-19T13:12:35;30.80;;;19.42;;
5585;SDS011;2815;54.094;12.112;2022-08-19T13:15:03;28.13;;;18.13;;
5585;SDS011;2815;54.094;12.112;2022-08-19T13:17:38;26.67;;;17.50;;
5585;SDS011;2815;54.094;12.112;2022-08-19T13:20:08;26.55;;;17.33;;
5585;SDS011;2815;54.094;12.112;2022-08-19T13:22:38;26.27;;;18.15;;
5585;SDS011;2815;54.094;12.112;2022-08-19T13:25:06;26.02;;;16.17;;
5585;SDS011;2815;54.094;12.112;2022-08-19T13:27:35;30.40;;;18.50;;
5585;SDS011;2815;54.094;12.112;2022-08-19T13:30:04;26.33;;;15.95;;
5585;SDS011;2815;54.094;12.112;2022-08-19T13:32:53;20.30;;;13.23;;
5585;SDS011;2815;54.094;12.112;2022-08-19T13:35:42;26.70;;;16.63;;
5585;SDS011;2815;54.094;12.112;2022-08-19T13:38:13;22.83;;;15.60;;
5585;SDS011;2815;54.094;12.112;2022-08-19T13:40:41;22.10;;;14.45;;
5585;SDS011;2815;54.094;12.112;2022-08-19T13:43:09;21.33;;;14.68;;
5585;SDS011;2815;54.094;12.112;2022-08-19T13:45:48;23.05;;;15.77;;
5585;SDS011;2815;54.094;12.112;2022-08-19T13:48:17;25.23;;;17.60;;
5585;SDS011;2815;54.094;12.112;2022-08-19T13:50:45;27.00;;;18.08;;
5585;SDS011;2815;54.094;12.112;2022-08-19T13:53:14;26.77;;;17.85;;
5585;SDS011;2815;54.094;12.112;2022-08-19T13:55:43;27.55;;;17.98;;
5585;SDS011;2815;54.094;12.112;2022-08-19T13:58:11;21.48;;;15.60;;
5585;SDS011;2815;54.094;12.112;2022-08-19T14:00:40;27.88;;;17.60;;
5585;SDS011;2815;54.094;12.112;2022-08-19T14:03:09;27.63;;;18.52;;
5585;SDS011;2815;54.094;12.112;2022-08-19T14:05:39;24.73;;;16.38;;
5585;SDS011;2815;54.094;12.112;2022-08-19T14:08:07;26.35;;;17.23;;
5585;SDS011;2815;54.094;12.112;2022-08-19T14:10:35;26.05;;;17.20;;
5585;SDS011;2815;54.094;12.112;2022-08-19T14:13:03;25.58;;;17.65;;
5585;SDS011;2815;54.094;12.112;2022-08-19T14:15:31;25.20;;;16.48;;
5585;SDS011;2815;54.094;12.112;2022-08-19T14:17:59;25.20;;;17.30;;
5585;SDS011;2815;54.094;12.112;2022-08-19T14:20:27;26.17;;;16.52;;
5585;SDS011;2815;54.094;12.112;2022-08-19T14:22:57;26.10;;;17.63;;
5585;SDS011;2815;54.094;12.112;2022-08-19T14:25:26;27.77;;;16.58;;
5585;SDS011;2815;54.094;12.112;2022-08-19T14:27:56;28.65;;;17.60;;
5585;SDS011;2815;54.094;12.112;2022-08-19T14:30:25;31.00;;;19.35;;
5585;SDS011;2815;54.094;12.112;2022-08-19T14:32:55;35.42;;;18.52;;
5585;SDS011;2815;54.094;12.112;2022-08-19T14:35:25;27.80;;;17.08;;
5585;SDS011;2815;54.094;12.112;2022-08-19T14:37:54;28.60;;;17.40;;
5585;SDS011;2815;54.094;12.112;2022-08-19T14:40:26;25.20;;;17.33;;
5585;SDS011;2815;54.094;12.112;2022-08-19T14:42:57;31.17;;;17.60;;
5585;SDS011;2815;54.094;12.112;2022-08-19T14:45:30;27.42;;;16.60;;
5585;SDS011;2815;54.094;12.112;2022-08-19T14:47:59;32.22;;;17.20;;
5585;SDS011;2815;54.094;12.112;2022-08-19T14:50:28;28.10;;;17.35;;
5585;SDS011;2815;54.094;12.112;2022-08-19T14:52:59;29.98;;;17.98;;
5585;SDS011;2815;54.094;12.112;2022-08-19T14:55:41;28.90;;;18.10;;
5585;SDS011;2815;54.094;12.112;2022-08-19T14:58:09;30.15;;;17.63;;